MAPA DE AEROPUERTO

INFORMACIÓN METAR y TAF


Deprecated: The each() function is deprecated. This message will be suppressed on further calls in /home/customer/www/clickair-va.com/public_html/VAM/vam/helpers/get_metar.php on line 20
METAR FOR BIIS
ADDS - METARS form results

(0351 UTC 25 May 2022)
Data provider http://aviationweather.gov/metar/data/
 
Forecast for: BIIS (ISAFJOROUR , IS)
Text: TAF BIIS 241623Z 2417/2502 VRB05KT 9999 -SHRA SCT020 BKN030
Forecast period: 1700 UTC 24 May 2022 to 0200 UTC 25 May 2022
Forecast type: FROM: standard forecast or significant change
Winds: variable direction winds at 6 MPH (5 knots; 2.6 m/s)
Visibility: 6 or more miles (10+ km)
Ceiling: 3000 feet AGL
Clouds: scattered clouds at 2000 feet AGL
broken clouds at 3000 feet AGL
Weather: -SHRA  (light rain showers)